Terminal Aerodrome Forecast
Issued by NWS Cleveland, OH

Home | Current Version | Previous Version | Text Only | Print | Product List | Glossary Off
Versions: 1 2 3 4 5 6 7 8 9 10 11 12 13 14 15 16 17 18

000
FTUS41 KCLE 251618 AAA
TAFERI
TAF AMD
KERI 251618Z 2516/2612 27010KT P6SM VCSH SCT025 OVC035
      TEMPO 2516/2519 5SM -SHRA OVC025
     FM260000 24006KT P6SM BKN035 OVC060
      TEMPO 2606/2610 5SM -SHRA BKN020 OVC035=

USA.gov is the U.S. government's official web portal to all federal, state and local government web resources and services.